sensor_id;sensor_type;location;lat;lon;timestamp;P1;durP1;ratioP1;P2;durP2;ratioP2
59649;SDS011;46162;57.568;25.814;2023-08-12T00:00:46;5.75;;;0.45;;
59649;SDS011;46162;57.568;25.814;2023-08-12T00:03:15;4.43;;;0.40;;
59649;SDS011;46162;57.568;25.814;2023-08-12T00:05:47;4.93;;;0.45;;
59649;SDS011;46162;57.568;25.814;2023-08-12T00:08:16;11.88;;;0.40;;
59649;SDS011;46162;57.568;25.814;2023-08-12T00:10:44;7.93;;;0.50;;
59649;SDS011;46162;57.568;25.814;2023-08-12T00:13:13;5.60;;;0.57;;
59649;SDS011;46162;57.568;25.814;2023-08-12T00:15:44;6.40;;;0.68;;
59649;SDS011;46162;57.568;25.814;2023-08-12T00:18:13;7.95;;;0.57;;
59649;SDS011;46162;57.568;25.814;2023-08-12T00:20:42;8.00;;;1.40;;
59649;SDS011;46162;57.568;25.814;2023-08-12T00:23:12;7.03;;;0.90;;
59649;SDS011;46162;57.568;25.814;2023-08-12T00:25:40;5.68;;;0.70;;
59649;SDS011;46162;57.568;25.814;2023-08-12T00:28:09;3.72;;;0.50;;
59649;SDS011;46162;57.568;25.814;2023-08-12T00:30:37;2.30;;;0.32;;
59649;SDS011;46162;57.568;25.814;2023-08-12T00:33:07;9.27;;;0.47;;
59649;SDS011;46162;57.568;25.814;2023-08-12T00:35:36;6.80;;;0.38;;
59649;SDS011;46162;57.568;25.814;2023-08-12T00:38:04;5.05;;;0.45;;
59649;SDS011;46162;57.568;25.814;2023-08-12T00:40:34;1.85;;;0.30;;
59649;SDS011;46162;57.568;25.814;2023-08-12T00:43:03;2.70;;;0.40;;
59649;SDS011;46162;57.568;25.814;2023-08-12T00:45:32;6.40;;;0.50;;
59649;SDS011;46162;57.568;25.814;2023-08-12T00:48:02;4.43;;;0.32;;
59649;SDS011;46162;57.568;25.814;2023-08-12T00:50:33;3.38;;;0.40;;
59649;SDS011;46162;57.568;25.814;2023-08-12T00:53:04;5.78;;;0.70;;
59649;SDS011;46162;57.568;25.814;2023-08-12T00:55:35;4.20;;;0.52;;
59649;SDS011;46162;57.568;25.814;2023-08-12T00:58:04;5.25;;;0.50;;
59649;SDS011;46162;57.568;25.814;2023-08-12T01:00:33;2.85;;;0.20;;
59649;SDS011;46162;57.568;25.814;2023-08-12T01:03:02;5.93;;;0.55;;
59649;SDS011;46162;57.568;25.814;2023-08-12T01:05:32;6.57;;;0.60;;
59649;SDS011;46162;57.568;25.814;2023-08-12T01:08:05;4.50;;;0.38;;
59649;SDS011;46162;57.568;25.814;2023-08-12T01:10:36;2.70;;;0.30;;
59649;SDS011;46162;57.568;25.814;2023-08-12T01:13:09;4.10;;;0.50;;
59649;SDS011;46162;57.568;25.814;2023-08-12T01:15:45;3.90;;;0.30;;
59649;SDS011;46162;57.568;25.814;2023-08-12T01:18:18;3.70;;;0.20;;
59649;SDS011;46162;57.568;25.814;2023-08-12T01:20:47;5.60;;;0.20;;
59649;SDS011;46162;57.568;25.814;2023-08-12T01:23:18;2.97;;;0.20;;
59649;SDS011;46162;57.568;25.814;2023-08-12T01:25:47;2.70;;;0.30;;
59649;SDS011;46162;57.568;25.814;2023-08-12T01:28:16;3.28;;;0.20;;
59649;SDS011;46162;57.568;25.814;2023-08-12T01:30:46;3.50;;;0.30;;
59649;SDS011;46162;57.568;25.814;2023-08-12T01:33:21;4.07;;;0.40;;
59649;SDS011;46162;57.568;25.814;2023-08-12T01:35:59;4.88;;;0.38;;
59649;SDS011;46162;57.568;25.814;2023-08-12T01:38:39;3.70;;;0.20;;
59649;SDS011;46162;57.568;25.814;2023-08-12T01:41:10;12.05;;;0.75;;
59649;SDS011;46162;57.568;25.814;2023-08-12T01:43:40;3.45;;;0.30;;
59649;SDS011;46162;57.568;25.814;2023-08-12T01:46:10;1.60;;;0.20;;
59649;SDS011;46162;57.568;25.814;2023-08-12T01:48:38;3.10;;;0.20;;
59649;SDS011;46162;57.568;25.814;2023-08-12T01:51:07;3.95;;;0.20;;
59649;SDS011;46162;57.568;25.814;2023-08-12T01:53:36;4.05;;;0.28;;
59649;SDS011;46162;57.568;25.814;2023-08-12T01:56:06;4.78;;;0.47;;
59649;SDS011;46162;57.568;25.814;2023-08-12T01:58:35;2.50;;;0.20;;
59649;SDS011;46162;57.568;25.814;2023-08-12T02:01:04;3.05;;;0.30;;
59649;SDS011;46162;57.568;25.814;2023-08-12T02:03:32;4.68;;;0.30;;
59649;SDS011;46162;57.568;25.814;2023-08-12T02:06:01;4.50;;;0.35;;
59649;SDS011;46162;57.568;25.814;2023-08-12T02:08:30;4.18;;;0.30;;
59649;SDS011;46162;57.568;25.814;2023-08-12T02:10:58;4.90;;;0.20;;
59649;SDS011;46162;57.568;25.814;2023-08-12T02:13:29;5.13;;;0.38;;
59649;SDS011;46162;57.568;25.814;2023-08-12T02:15:59;2.78;;;0.10;;
59649;SDS011;46162;57.568;25.814;2023-08-12T02:18:27;4.20;;;0.30;;
59649;SDS011;46162;57.568;25.814;2023-08-12T02:20:56;3.22;;;0.25;;
59649;SDS011;46162;57.568;25.814;2023-08-12T02:23:25;4.47;;;0.50;;
59649;SDS011;46162;57.568;25.814;2023-08-12T02:25:53;3.20;;;0.38;;
59649;SDS011;46162;57.568;25.814;2023-08-12T02:28:22;6.05;;;0.38;;
59649;SDS011;46162;57.568;25.814;2023-08-12T02:30:52;4.47;;;0.22;;
59649;SDS011;46162;57.568;25.814;2023-08-12T02:33:21;3.50;;;0.20;;
59649;SDS011;46162;57.568;25.814;2023-08-12T02:35:52;3.55;;;0.20;;
59649;SDS011;46162;57.568;25.814;2023-08-12T02:38:24;1.65;;;0.20;;
59649;SDS011;46162;57.568;25.814;2023-08-12T02:40:52;2.70;;;0.20;;
59649;SDS011;46162;57.568;25.814;2023-08-12T02:43:22;4.22;;;0.20;;
59649;SDS011;46162;57.568;25.814;2023-08-12T02:45:50;10.25;;;0.50;;
59649;SDS011;46162;57.568;25.814;2023-08-12T02:48:21;3.63;;;0.20;;
59649;SDS011;46162;57.568;25.814;2023-08-12T02:50:49;3.38;;;0.30;;
59649;SDS011;46162;57.568;25.814;2023-08-12T02:53:18;3.75;;;0.28;;
59649;SDS011;46162;57.568;25.814;2023-08-12T02:55:46;3.25;;;0.20;;
59649;SDS011;46162;57.568;25.814;2023-08-12T02:58:15;3.38;;;0.30;;
59649;SDS011;46162;57.568;25.814;2023-08-12T03:00:44;3.47;;;0.40;;
59649;SDS011;46162;57.568;25.814;2023-08-12T03:03:14;7.57;;;0.50;;
59649;SDS011;46162;57.568;25.814;2023-08-12T03:05:45;6.85;;;0.40;;
59649;SDS011;46162;57.568;25.814;2023-08-12T03:08:15;4.10;;;0.38;;
59649;SDS011;46162;57.568;25.814;2023-08-12T03:10:45;8.13;;;0.60;;
59649;SDS011;46162;57.568;25.814;2023-08-12T03:13:15;7.05;;;0.70;;
59649;SDS011;46162;57.568;25.814;2023-08-12T03:15:44;6.18;;;0.73;;
59649;SDS011;46162;57.568;25.814;2023-08-12T03:18:14;3.92;;;0.82;;
59649;SDS011;46162;57.568;25.814;2023-08-12T03:20:42;8.07;;;0.90;;
59649;SDS011;46162;57.568;25.814;2023-08-12T03:23:11;10.38;;;1.17;;
59649;SDS011;46162;57.568;25.814;2023-08-12T03:25:41;9.02;;;2.03;;
59649;SDS011;46162;57.568;25.814;2023-08-12T03:28:10;13.40;;;2.25;;
59649;SDS011;46162;57.568;25.814;2023-08-12T03:30:40;12.90;;;2.92;;
59649;SDS011;46162;57.568;25.814;2023-08-12T03:33:09;9.45;;;2.55;;
59649;SDS011;46162;57.568;25.814;2023-08-12T03:35:39;11.68;;;2.67;;
59649;SDS011;46162;57.568;25.814;2023-08-12T03:38:14;7.55;;;1.83;;
59649;SDS011;46162;57.568;25.814;2023-08-12T03:40:44;6.68;;;2.05;;
59649;SDS011;46162;57.568;25.814;2023-08-12T03:43:15;3.33;;;0.60;;
59649;SDS011;46162;57.568;25.814;2023-08-12T03:45:45;4.30;;;0.70;;
59649;SDS011;46162;57.568;25.814;2023-08-12T03:48:17;5.18;;;0.90;;
59649;SDS011;46162;57.568;25.814;2023-08-12T03:50:48;3.40;;;0.80;;
59649;SDS011;46162;57.568;25.814;2023-08-12T03:53:17;6.22;;;0.50;;
59649;SDS011;46162;57.568;25.814;2023-08-12T03:55:46;6.75;;;0.93;;
59649;SDS011;46162;57.568;25.814;2023-08-12T03:58:17;4.20;;;0.70;;
59649;SDS011;46162;57.568;25.814;2023-08-12T04:00:46;5.95;;;0.65;;
59649;SDS011;46162;57.568;25.814;2023-08-12T04:03:15;6.05;;;1.08;;
59649;SDS011;46162;57.568;25.814;2023-08-12T04:05:49;4.22;;;0.70;;
59649;SDS011;46162;57.568;25.814;2023-08-12T04:08:23;3.67;;;0.73;;
59649;SDS011;46162;57.568;25.814;2023-08-12T04:10:54;3.15;;;0.60;;
59649;SDS011;46162;57.568;25.814;2023-08-12T04:13:24;8.35;;;0.93;;
59649;SDS011;46162;57.568;25.814;2023-08-12T04:15:53;5.38;;;1.25;;
59649;SDS011;46162;57.568;25.814;2023-08-12T04:18:22;4.63;;;0.80;;
59649;SDS011;46162;57.568;25.814;2023-08-12T04:20:52;4.80;;;0.70;;
59649;SDS011;46162;57.568;25.814;2023-08-12T04:23:22;6.38;;;1.20;;
59649;SDS011;46162;57.568;25.814;2023-08-12T04:25:52;8.45;;;1.73;;
59649;SDS011;46162;57.568;25.814;2023-08-12T04:28:25;5.82;;;0.95;;
59649;SDS011;46162;57.568;25.814;2023-08-12T04:30:53;6.82;;;1.25;;
59649;SDS011;46162;57.568;25.814;2023-08-12T04:33:24;8.60;;;1.73;;
59649;SDS011;46162;57.568;25.814;2023-08-12T04:35:54;9.15;;;2.72;;
59649;SDS011;46162;57.568;25.814;2023-08-12T04:38:24;10.70;;;2.38;;
59649;SDS011;46162;57.568;25.814;2023-08-12T04:40:55;7.35;;;2.67;;
59649;SDS011;46162;57.568;25.814;2023-08-12T04:43:24;8.73;;;2.65;;
59649;SDS011;46162;57.568;25.814;2023-08-12T04:45:53;14.68;;;2.92;;
59649;SDS011;46162;57.568;25.814;2023-08-12T04:48:22;9.95;;;2.92;;
59649;SDS011;46162;57.568;25.814;2023-08-12T04:50:51;6.82;;;3.33;;
59649;SDS011;46162;57.568;25.814;2023-08-12T04:53:21;9.02;;;2.45;;
59649;SDS011;46162;57.568;25.814;2023-08-12T04:58:19;7.53;;;2.35;;
59649;SDS011;46162;57.568;25.814;2023-08-12T05:00:49;8.13;;;2.10;;
